Terminal Aerodrome Forecast
Issued by NWS

Home | Current Version | Previous Version | Text Only | Print | Product List | Glossary On
Versions: 1 2 3 4 5 6 7 8 9 10 11 12 13 14 15 16 17 18 19 20
000
FTUS42 KJAX 240520
TAFVQQ
TAF
KVQQ 240520Z 2406/2506 08004KT P6SM SCT030
     FM241300 09010KT P6SM SCT035
     FM241600 10012G18KT P6SM SCT025 BKN035=

USA.gov is the U.S. government's official web portal to all federal, state and local government web resources and services.